createdAt,value
2019-01-11T00:00:46.603Z,77.63
2019-01-11T00:03:15.824Z,78.03
2019-01-11T00:05:44.699Z,78.00
2019-01-11T00:08:13.775Z,77.96
2019-01-11T00:10:42.950Z,78.13
2019-01-11T00:13:11.934Z,78.29
2019-01-11T00:15:40.899Z,78.44
2019-01-11T00:18:09.989Z,78.20
2019-01-11T00:20:38.974Z,77.89
2019-01-11T00:23:07.952Z,78.16
2019-01-11T00:25:36.917Z,78.05
2019-01-11T00:28:05.889Z,77.98
2019-01-11T00:30:35.512Z,77.90
2019-01-11T00:33:04.500Z,77.53
2019-01-11T00:35:33.477Z,77.63
2019-01-11T00:38:02.387Z,77.31
2019-01-11T00:40:31.360Z,77.36
2019-01-11T00:43:00.319Z,77.30
2019-01-11T00:45:29.292Z,77.57
2019-01-11T00:47:58.183Z,77.50
2019-01-11T00:50:27.155Z,77.35
2019-01-11T00:52:56.142Z,77.48
2019-01-11T00:55:25.052Z,77.60
2019-01-11T00:57:54.037Z,77.57
2019-01-11T01:00:24.121Z,77.75
2019-01-11T01:02:53.076Z,77.59
2019-01-11T01:05:22.060Z,77.67
2019-01-11T01:07:51.450Z,77.44
2019-01-11T01:10:21.723Z,77.28
2019-01-11T01:12:50.613Z,77.00
2019-01-11T01:15:20.658Z,76.87
2019-01-11T01:17:49.620Z,76.35
2019-01-11T01:20:18.990Z,76.63
2019-01-11T01:22:48.053Z,76.81
2019-01-11T01:25:17.022Z,76.77
2019-01-11T01:27:45.977Z,77.17
2019-01-11T01:30:16.738Z,77.08
2019-01-11T01:32:46.107Z,76.90
2019-01-11T01:35:15.099Z,77.14
2019-01-11T01:37:44.679Z,77.07
2019-01-11T01:40:14.397Z,76.95
2019-01-11T01:42:43.366Z,76.91
2019-01-11T01:45:14.085Z,76.79
2019-01-11T01:47:43.916Z,76.57
2019-01-11T01:50:13.944Z,76.48
2019-01-11T01:52:42.836Z,76.20
2019-01-11T01:55:12.293Z,76.05
2019-01-11T01:57:41.181Z,75.95
2019-01-11T02:00:13.009Z,75.65
2019-01-11T02:02:42.080Z,75.49
2019-01-11T02:05:11.344Z,75.52
2019-01-11T02:07:40.232Z,75.77
2019-01-11T02:10:11.278Z,76.05
2019-01-11T02:12:40.233Z,76.29
2019-01-11T02:15:10.491Z,75.91
2019-01-11T02:17:39.564Z,75.65
2019-01-11T02:20:14.739Z,76.06
2019-01-11T02:22:43.939Z,76.27
2019-01-11T02:25:13.262Z,76.44
2019-01-11T02:27:42.214Z,77.04
2019-01-11T02:30:16.862Z,76.85
2019-01-11T02:32:52.349Z,76.36
2019-01-11T02:35:16.863Z,76.28
2019-01-11T02:37:45.820Z,76.25
2019-01-11T02:40:15.201Z,75.97
2019-01-11T02:42:44.184Z,76.31
2019-01-11T02:45:15.514Z,77.06
2019-01-11T02:47:44.513Z,76.99
2019-01-11T02:50:13.502Z,77.32
2019-01-11T02:52:42.475Z,77.40
2019-01-11T02:55:11.444Z,77.58
2019-01-11T02:57:40.442Z,77.39
2019-01-11T03:00:17.814Z,77.20
2019-01-11T03:02:46.788Z,76.97
2019-01-11T03:05:15.756Z,76.51
2019-01-11T03:07:45.167Z,76.21
2019-01-11T03:10:16.707Z,75.99
2019-01-11T03:12:46.212Z,76.23
2019-01-11T03:15:16.031Z,76.38
2019-01-11T03:17:45.482Z,76.61
2019-01-11T03:20:15.118Z,76.15
2019-01-11T03:22:44.150Z,76.06
2019-01-11T03:25:13.479Z,76.06
2019-01-11T03:27:42.763Z,76.40
2019-01-11T03:30:14.579Z,76.79
2019-01-11T03:32:43.713Z,77.25
2019-01-11T03:35:17.079Z,77.29
2019-01-11T03:37:48.016Z,77.29
2019-01-11T03:40:18.533Z,77.26
2019-01-11T03:42:47.522Z,77.84
2019-01-11T03:45:17.949Z,78.02
2019-01-11T03:47:47.087Z,77.96
2019-01-11T03:50:16.665Z,77.83
2019-01-11T03:52:45.836Z,77.46
2019-01-11T03:55:15.781Z,77.28
2019-01-11T03:57:44.758Z,77.98
2019-01-11T04:00:19.397Z,78.35
2019-01-11T04:02:48.486Z,78.24
2019-01-11T04:05:17.459Z,78.63
2019-01-11T04:07:46.453Z,78.94
2019-01-11T04:10:17.578Z,78.43
2019-01-11T04:12:46.430Z,78.09
2019-01-11T04:15:16.520Z,78.04
2019-01-11T04:17:47.306Z,78.18
2019-01-11T04:20:17.886Z,77.96
2019-01-11T04:22:55.046Z,78.41
2019-01-11T04:25:29.856Z,78.54
2019-01-11T04:27:58.837Z,79.12
2019-01-11T04:30:27.798Z,79.52
2019-01-11T04:32:56.745Z,79.36
2019-01-11T04:35:25.643Z,79.39
2019-01-11T04:37:54.529Z,79.40
2019-01-11T04:40:23.704Z,79.22
2019-01-11T04:42:52.545Z,79.44
2019-01-11T04:45:21.489Z,79.84
2019-01-11T04:47:50.445Z,79.35
2019-01-11T04:50:19.812Z,79.44
2019-01-11T04:52:48.768Z,79.66
2019-01-11T04:55:17.950Z,79.66
2019-01-11T04:57:46.849Z,79.56
2019-01-11T05:00:20.900Z,79.59
2019-01-11T05:02:49.859Z,79.64
2019-01-11T05:05:19.142Z,79.27
2019-01-11T05:07:48.132Z,79.54
2019-01-11T05:10:18.736Z,79.55
2019-01-11T05:12:47.723Z,79.62
2019-01-11T05:15:16.851Z,79.72
2019-01-11T05:17:45.819Z,79.56
2019-01-11T05:20:17.333Z,79.70
2019-01-11T05:22:47.226Z,79.38
2019-01-11T05:25:16.395Z,78.98
2019-01-11T05:27:45.389Z,79.19
2019-01-11T05:30:21.353Z,79.29
2019-01-11T05:32:50.245Z,78.99
2019-01-11T05:35:19.253Z,79.03
2019-01-11T05:37:48.233Z,78.65
2019-01-11T05:40:18.709Z,78.53
2019-01-11T05:42:47.665Z,78.13
2019-01-11T05:45:18.149Z,78.49
2019-01-11T05:47:47.441Z,78.55
2019-01-11T05:50:24.092Z,79.05
2019-01-11T05:52:50.824Z,78.82
2019-01-11T05:55:36.605Z,78.85
2019-01-11T05:58:29.294Z,78.63
2019-01-11T06:00:58.288Z,78.46
2019-01-11T06:03:27.330Z,78.54
2019-01-11T06:05:56.347Z,78.53
2019-01-11T06:08:26.226Z,78.39
2019-01-11T06:10:55.200Z,78.68
2019-01-11T06:13:24.355Z,78.90
2019-01-11T06:15:53.359Z,78.82
2019-01-11T06:18:22.292Z,79.04
2019-01-11T06:20:51.570Z,79.08
2019-01-11T06:23:20.544Z,79.23
2019-01-11T06:25:49.519Z,79.34
2019-01-11T06:28:18.772Z,79.40
2019-01-11T06:30:47.838Z,79.74
2019-01-11T06:33:17.549Z,79.85
2019-01-11T06:35:46.504Z,79.85
2019-01-11T06:38:15.460Z,79.95
2019-01-11T06:40:44.439Z,79.93
2019-01-11T06:43:13.416Z,79.65
2019-01-11T06:45:42.306Z,79.52
2019-01-11T06:48:27.262Z,79.79
2019-01-11T06:50:56.109Z,79.82
2019-01-11T06:53:25.093Z,80.05
2019-01-11T06:55:54.008Z,80.35
2019-01-11T06:58:22.928Z,80.58
2019-01-11T07:00:51.832Z,80.46
2019-01-11T07:03:21.791Z,80.23
2019-01-11T07:05:50.722Z,79.73
2019-01-11T07:08:19.626Z,79.32
2019-01-11T07:10:48.618Z,79.73
2019-01-11T07:13:17.502Z,80.19
2019-01-11T07:15:46.476Z,79.76
2019-01-11T07:18:15.377Z,79.56
2019-01-11T07:20:44.588Z,79.39
2019-01-11T07:23:13.914Z,78.94
2019-01-11T07:25:42.968Z,78.87
2019-01-11T07:28:13.732Z,78.09
2019-01-11T07:30:58.620Z,77.83
2019-01-11T07:33:27.526Z,77.63
2019-01-11T07:36:07.766Z,77.48
2019-01-11T07:38:36.674Z,77.55
2019-01-11T07:41:07.142Z,75.62
2019-01-11T07:43:35.979Z,75.07
2019-01-11T07:46:04.944Z,74.16
2019-01-11T07:48:33.781Z,73.33
2019-01-11T07:51:02.746Z,72.50
2019-01-11T07:53:31.656Z,72.12
2019-01-11T07:56:00.541Z,72.24
2019-01-11T07:58:29.364Z,71.96
2019-01-11T08:00:58.265Z,71.94
2019-01-11T08:03:27.185Z,70.69
2019-01-11T08:05:56.157Z,71.64
2019-01-11T08:08:24.985Z,71.94
2019-01-11T08:10:53.883Z,72.93
2019-01-11T08:13:22.730Z,72.38
2019-01-11T08:15:51.627Z,70.93
2019-01-11T08:18:20.459Z,69.82
2019-01-11T08:20:55.980Z,70.05
2019-01-11T08:23:20.114Z,70.47
2019-01-11T08:25:49.008Z,70.28
2019-01-11T08:28:17.981Z,69.98
2019-01-11T08:30:46.790Z,69.04
2019-01-11T08:33:18.692Z,68.95
2019-01-11T08:35:46.332Z,68.25
2019-01-11T08:38:15.170Z,67.77
2019-01-11T08:40:44.132Z,68.45
2019-01-11T08:43:13.122Z,68.62
2019-01-11T08:45:42.044Z,68.44
2019-01-11T08:48:12.772Z,68.32
2019-01-11T08:50:41.801Z,68.77
2019-01-11T08:53:11.271Z,68.90
2019-01-11T08:55:40.257Z,68.55
2019-01-11T08:58:09.217Z,68.74
2019-01-11T09:00:38.137Z,67.91
2019-01-11T09:03:07.420Z,68.96
2019-01-11T09:05:36.430Z,69.01
2019-01-11T09:08:05.613Z,69.35
2019-01-11T09:10:34.602Z,70.42
2019-01-11T09:13:03.574Z,69.98
2019-01-11T09:15:32.626Z,69.93
2019-01-11T09:18:12.418Z,69.73
2019-01-11T09:20:41.874Z,68.67
2019-01-11T09:23:10.868Z,68.96
2019-01-11T09:25:39.842Z,68.18
2019-01-11T09:28:08.808Z,67.32
2019-01-11T09:30:37.780Z,70.00
2019-01-11T09:33:06.746Z,68.21
2019-01-11T09:35:35.731Z,67.29
2019-01-11T09:38:05.030Z,66.64
2019-01-11T09:40:33.964Z,67.96
2019-01-11T09:43:02.940Z,68.21
2019-01-11T09:45:31.783Z,67.49
2019-01-11T09:48:00.754Z,66.50
2019-01-11T09:50:29.667Z,65.04
2019-01-11T09:52:58.619Z,65.71
2019-01-11T09:55:27.584Z,66.12
2019-01-11T09:57:56.413Z,66.10
2019-01-11T10:00:26.844Z,66.53
2019-01-11T10:03:01.964Z,67.17
2019-01-11T10:05:30.945Z,68.08
2019-01-11T10:07:59.840Z,67.31
2019-01-11T10:10:28.816Z,67.31
2019-01-11T10:12:57.803Z,67.41
2019-01-11T10:15:26.740Z,66.69
2019-01-11T10:17:55.647Z,67.02
2019-01-11T10:20:24.666Z,68.35
2019-01-11T10:22:53.473Z,67.82
2019-01-11T10:25:22.440Z,67.04
2019-01-11T10:27:51.332Z,68.08
2019-01-11T10:30:22.068Z,67.04
2019-01-11T10:32:51.020Z,67.84
2019-01-11T10:35:19.982Z,67.23
2019-01-11T10:37:48.974Z,67.49
2019-01-11T10:40:18.569Z,66.96
2019-01-11T10:42:48.215Z,67.62
2019-01-11T10:45:19.698Z,67.24
2019-01-11T10:47:50.447Z,66.77
2019-01-11T10:50:19.438Z,66.36
2019-01-11T10:52:48.668Z,66.45
2019-01-11T10:55:17.845Z,67.37
2019-01-11T10:57:47.717Z,66.82
2019-01-11T11:00:19.444Z,66.23
2019-01-11T11:02:48.443Z,67.37
2019-01-11T11:05:17.399Z,67.04
2019-01-11T11:07:47.004Z,66.87
2019-01-11T11:10:16.140Z,67.06
2019-01-11T11:12:45.055Z,66.96
2019-01-11T11:15:15.385Z,67.72
2019-01-11T11:17:44.938Z,68.53
2019-01-11T11:20:15.627Z,69.01
2019-01-11T11:22:44.912Z,70.00
2019-01-11T11:25:16.417Z,69.21
2019-01-11T11:27:45.522Z,69.38
2019-01-11T11:30:15.503Z,70.49
2019-01-11T11:32:52.582Z,71.48
2019-01-11T11:35:21.473Z,71.82
2019-01-11T11:37:50.483Z,74.93
2019-01-11T11:40:19.494Z,74.90
2019-01-11T11:42:49.233Z,76.77
2019-01-11T11:45:18.329Z,76.79
2019-01-11T11:47:47.322Z,77.34
2019-01-11T11:50:16.310Z,78.05
2019-01-11T11:52:45.286Z,79.03
2019-01-11T11:55:14.250Z,80.53
2019-01-11T11:57:43.235Z,81.18
2019-01-11T12:00:15.477Z,81.74
2019-01-11T12:02:44.481Z,81.81
2019-01-11T12:05:13.471Z,82.59
2019-01-11T12:07:42.490Z,83.71
2019-01-11T12:10:13.496Z,83.71
2019-01-11T12:12:42.584Z,84.09
2019-01-11T12:15:12.536Z,84.35
2019-01-11T12:17:41.519Z,85.19
2019-01-11T12:20:17.648Z,85.90
2019-01-11T12:22:46.640Z,86.91
2019-01-11T12:25:15.480Z,86.66
2019-01-11T12:27:44.484Z,85.41
2019-01-11T12:30:14.038Z,85.22
2019-01-11T12:32:43.087Z,85.65
2019-01-11T12:35:11.978Z,86.09
2019-01-11T12:37:40.975Z,85.85
2019-01-11T12:40:10.940Z,85.99
2019-01-11T12:42:39.922Z,86.02
2019-01-11T12:45:10.594Z,86.68
2019-01-11T12:47:39.500Z,86.97
2019-01-11T12:50:12.261Z,87.08
2019-01-11T12:52:41.165Z,87.01
2019-01-11T12:55:10.269Z,87.14
2019-01-11T12:57:39.236Z,87.17
2019-01-11T13:00:10.702Z,87.32
2019-01-11T13:02:39.524Z,87.62
2019-01-11T13:05:10.248Z,87.65
2019-01-11T13:07:39.589Z,87.54
2019-01-11T13:10:10.319Z,87.17
2019-01-11T13:12:39.356Z,87.41
2019-01-11T13:15:10.974Z,86.42
2019-01-11T13:17:40.015Z,86.01
2019-01-11T13:20:11.147Z,85.67
2019-01-11T13:22:40.307Z,85.42
2019-01-11T13:25:09.719Z,84.99
2019-01-11T13:27:38.770Z,84.90
2019-01-11T13:30:10.625Z,85.50
2019-01-11T13:32:39.774Z,85.80
2019-01-11T13:35:08.881Z,85.05
2019-01-11T13:37:37.970Z,85.30
2019-01-11T13:40:10.879Z,85.44
2019-01-11T13:42:39.881Z,85.56
2019-01-11T13:45:09.515Z,85.36
2019-01-11T13:47:38.529Z,85.99
2019-01-11T13:50:15.283Z,86.01
2019-01-11T13:52:44.344Z,86.35
2019-01-11T13:55:13.404Z,86.56
2019-01-11T13:57:42.470Z,86.80
2019-01-11T14:00:12.921Z,86.77
2019-01-11T14:02:41.915Z,86.92
2019-01-11T14:05:11.956Z,86.98
2019-01-11T14:07:40.955Z,87.34
2019-01-11T14:10:09.980Z,87.24
2019-01-11T14:12:39.035Z,87.54
2019-01-11T14:15:08.436Z,87.92
2019-01-11T14:17:37.500Z,88.21
2019-01-11T14:20:06.831Z,88.75
2019-01-11T14:22:35.892Z,88.97
2019-01-11T14:25:05.811Z,88.97
2019-01-11T14:27:34.817Z,89.02
2019-01-11T14:30:03.910Z,88.98
2019-01-11T14:32:32.933Z,89.05
2019-01-11T14:35:01.987Z,88.79
2019-01-11T14:37:32.373Z,88.43
2019-01-11T14:40:01.382Z,88.44
2019-01-11T14:42:30.424Z,88.50
2019-01-11T14:44:59.352Z,88.43
2019-01-11T14:47:28.464Z,88.43
2019-01-11T14:49:57.482Z,88.35
2019-01-11T14:52:26.487Z,88.44
2019-01-11T14:54:55.544Z,88.44
2019-01-11T14:57:24.613Z,88.60
2019-01-11T14:59:53.609Z,88.66
2019-01-11T15:02:22.668Z,88.78
2019-01-11T15:04:51.659Z,88.93
2019-01-11T15:07:20.656Z,89.04
2019-01-11T15:09:49.640Z,89.08
2019-01-11T15:12:18.699Z,89.11
2019-01-11T15:14:47.728Z,89.19
2019-01-11T15:17:16.774Z,89.24
2019-01-11T15:19:45.709Z,89.18
2019-01-11T15:22:14.683Z,89.33
2019-01-11T15:24:43.759Z,89.45
2019-01-11T15:27:12.845Z,89.50
2019-01-11T15:29:41.828Z,89.57
2019-01-11T15:32:10.815Z,89.64
2019-01-11T15:34:40.616Z,89.74
2019-01-11T15:37:09.549Z,89.74
2019-01-11T15:39:38.585Z,89.84
2019-01-11T15:42:07.641Z,89.96
2019-01-11T15:44:36.672Z,90.07
2019-01-11T15:47:05.719Z,90.16
2019-01-11T15:49:34.652Z,90.27
2019-01-11T15:52:03.772Z,90.39
2019-01-11T15:54:32.948Z,90.42
2019-01-11T15:57:02.045Z,90.49
2019-01-11T15:59:33.686Z,90.45
2019-01-11T16:02:02.822Z,90.62
2019-01-11T16:04:31.887Z,90.74
2019-01-11T16:07:00.938Z,90.77
2019-01-11T16:10:17.163Z,90.73
2019-01-11T16:13:12.736Z,90.84
2019-01-11T16:16:37.819Z,90.72
2019-01-11T16:19:06.867Z,90.81
2019-01-11T16:21:35.835Z,90.90
2019-01-11T16:24:05.512Z,90.84
2019-01-11T16:26:34.437Z,90.84
2019-01-11T16:29:03.468Z,90.88
2019-01-11T16:31:32.483Z,90.98
2019-01-11T16:34:01.391Z,91.05
2019-01-11T16:36:30.392Z,91.09
2019-01-11T16:38:59.566Z,91.17
2019-01-11T16:41:28.524Z,91.29
2019-01-11T16:43:57.458Z,91.34
2019-01-11T16:46:26.301Z,91.40
2019-01-11T16:48:55.401Z,91.41
2019-01-11T16:51:24.227Z,91.45
2019-01-11T16:53:53.067Z,91.46
2019-01-11T16:56:21.881Z,91.40
2019-01-11T16:58:50.863Z,91.47
2019-01-11T17:01:19.841Z,91.52
2019-01-11T17:03:48.738Z,91.57
2019-01-11T17:06:17.657Z,91.63
2019-01-11T17:08:46.566Z,91.64
2019-01-11T17:11:15.581Z,91.68
2019-01-11T17:13:44.563Z,91.60
2019-01-11T17:16:13.762Z,91.61
2019-01-11T17:18:42.693Z,91.67
2019-01-11T17:21:11.669Z,91.71
2019-01-11T17:23:40.566Z,91.71
2019-01-11T17:26:09.570Z,91.81
2019-01-11T17:28:38.556Z,91.83
2019-01-11T17:31:07.556Z,91.86
2019-01-11T17:33:36.579Z,91.96
2019-01-11T17:36:05.574Z,92.04
2019-01-11T17:38:34.395Z,92.15
2019-01-11T17:41:03.380Z,92.18
2019-01-11T17:43:32.272Z,92.14
2019-01-11T17:46:01.179Z,92.18
2019-01-11T17:48:30.157Z,92.17
2019-01-11T17:50:59.049Z,92.24
2019-01-11T17:53:28.022Z,92.23
2019-01-11T17:55:56.929Z,92.27
2019-01-11T17:58:25.889Z,92.34
2019-01-11T18:00:54.709Z,92.40
2019-01-11T18:03:23.605Z,92.43
2019-01-11T18:05:52.581Z,92.48
2019-01-11T18:08:21.540Z,92.50
2019-01-11T18:10:50.529Z,92.63
2019-01-11T18:13:19.505Z,92.81
2019-01-11T18:15:48.513Z,92.90
2019-01-11T18:18:17.356Z,92.91
2019-01-11T18:20:46.333Z,92.82
2019-01-11T18:23:15.322Z,92.74
2019-01-11T18:25:44.311Z,92.78
2019-01-11T18:28:13.375Z,92.73
2019-01-11T18:30:42.426Z,92.72
2019-01-11T18:33:11.382Z,92.65
2019-01-11T18:35:40.406Z,92.68
2019-01-11T18:38:09.417Z,92.67
2019-01-11T18:40:38.433Z,92.69
2019-01-11T18:43:07.425Z,92.76
2019-01-11T18:45:36.336Z,92.73
2019-01-11T18:48:05.536Z,92.68
2019-01-11T18:50:34.446Z,92.76
2019-01-11T18:53:03.366Z,92.86
2019-01-11T18:55:32.339Z,92.99
2019-01-11T18:58:01.310Z,93.03
2019-01-11T19:00:30.220Z,93.11
2019-01-11T19:02:59.157Z,93.21
2019-01-11T19:05:28.190Z,93.20
2019-01-11T19:07:57.095Z,93.19
2019-01-11T19:10:26.100Z,93.20
2019-01-11T19:12:55.060Z,93.20
2019-01-11T19:15:26.956Z,93.11
2019-01-11T19:17:55.867Z,93.11
2019-01-11T19:20:29.639Z,93.11
2019-01-11T19:22:59.463Z,93.20
2019-01-11T19:25:28.483Z,93.24
2019-01-11T19:27:57.369Z,93.23
2019-01-11T19:30:28.179Z,93.19
2019-01-11T19:32:57.297Z,93.21
2019-01-11T19:35:26.224Z,93.33
2019-01-11T19:37:55.196Z,93.45
2019-01-11T19:40:24.157Z,93.42
2019-01-11T19:42:53.328Z,93.39
2019-01-11T19:45:22.299Z,93.39
2019-01-11T19:47:51.295Z,93.38
2019-01-11T19:50:22.176Z,93.35
2019-01-11T19:52:51.837Z,93.29
2019-01-11T19:55:21.105Z,93.26
2019-01-11T19:57:50.061Z,93.25
2019-01-11T20:00:21.575Z,93.35
2019-01-11T20:02:50.869Z,93.44
2019-01-11T20:05:20.411Z,93.44
2019-01-11T20:07:49.484Z,93.50
2019-01-11T20:10:20.968Z,93.48
2019-01-11T20:12:49.946Z,93.35
2019-01-11T20:15:18.962Z,93.26
2019-01-11T20:17:47.967Z,93.10
2019-01-11T20:20:17.044Z,93.03
2019-01-11T20:22:46.127Z,93.02
2019-01-11T20:25:17.686Z,93.02
2019-01-11T20:27:46.684Z,93.05
2019-01-11T20:30:18.123Z,93.15
2019-01-11T20:32:47.379Z,93.24
2019-01-11T20:35:16.416Z,93.31
2019-01-11T20:37:45.622Z,93.32
2019-01-11T20:40:15.672Z,93.31
2019-01-11T20:42:44.746Z,93.25
2019-01-11T20:45:16.008Z,93.28
2019-01-11T20:47:45.170Z,93.40
2019-01-11T20:50:17.041Z,93.49
2019-01-11T20:52:46.061Z,93.58
2019-01-11T20:55:15.206Z,93.63
2019-01-11T20:57:44.419Z,93.60
2019-01-11T21:00:22.511Z,93.67
2019-01-11T21:02:51.631Z,93.75
2019-01-11T21:05:20.913Z,93.79
2019-01-11T21:07:49.920Z,93.80
2019-01-11T21:10:19.873Z,93.81
2019-01-11T21:12:48.732Z,93.75
2019-01-11T21:15:18.005Z,93.85
2019-01-11T21:17:47.267Z,93.84
2019-01-11T21:20:17.232Z,93.89
2019-01-11T21:22:46.496Z,93.94
2019-01-11T21:25:16.237Z,93.98
2019-01-11T21:27:45.550Z,93.89
2019-01-11T21:30:20.064Z,93.83
2019-01-11T21:32:49.125Z,93.84
2019-01-11T21:35:18.323Z,93.82
2019-01-11T21:37:47.434Z,93.81
2019-01-11T21:40:17.995Z,93.81
2019-01-11T21:42:47.693Z,93.86
2019-01-11T21:45:17.845Z,93.88
2019-01-11T21:47:47.608Z,93.89
2019-01-11T21:50:21.632Z,93.87
2019-01-11T21:52:50.914Z,93.83
2019-01-11T21:55:20.188Z,93.81
2019-01-11T21:57:49.419Z,93.80
2019-01-11T22:00:38.754Z,93.80
2019-01-11T22:03:10.319Z,93.78
2019-01-11T22:05:39.352Z,93.64
2019-01-11T22:08:08.382Z,93.64
2019-01-11T22:10:37.436Z,93.65
2019-01-11T22:13:06.461Z,93.72
2019-01-11T22:15:35.514Z,93.75
2019-01-11T22:18:04.831Z,93.80
2019-01-11T22:20:33.700Z,93.89
2019-01-11T22:23:02.721Z,93.93
2019-01-11T22:25:31.793Z,93.91
2019-01-11T22:28:00.803Z,93.90
2019-01-11T22:30:30.617Z,93.94
2019-01-11T22:32:59.557Z,93.98
2019-01-11T22:35:28.522Z,93.99
2019-01-11T22:37:57.522Z,94.07
2019-01-11T22:40:26.577Z,94.10
2019-01-11T22:42:58.003Z,94.14
2019-01-11T22:45:27.026Z,94.21
2019-01-11T22:47:56.209Z,94.23
2019-01-11T22:50:25.203Z,94.17
2019-01-11T22:52:54.326Z,94.22
2019-01-11T22:55:23.391Z,94.24
2019-01-11T22:57:52.473Z,94.21
2019-01-11T23:00:57.012Z,94.18
2019-01-11T23:03:39.423Z,94.14
2019-01-11T23:06:23.802Z,94.20
2019-01-11T23:08:52.786Z,94.23
2019-01-11T23:11:59.567Z,94.22
2019-01-11T23:14:28.523Z,94.28
2019-01-11T23:17:37.464Z,94.25
2019-01-11T23:20:08.946Z,94.28
2019-01-11T23:22:37.910Z,94.39
2019-01-11T23:25:06.915Z,94.36
2019-01-11T23:27:36.539Z,94.33
2019-01-11T23:30:08.809Z,94.35
2019-01-11T23:32:37.949Z,94.33
2019-01-11T23:35:07.035Z,94.33
2019-01-11T23:37:36.026Z,94.39
2019-01-11T23:40:06.596Z,94.42
2019-01-11T23:42:35.604Z,94.43
2019-01-11T23:45:05.187Z,94.42
2019-01-11T23:47:34.174Z,94.32
2019-01-11T23:50:03.197Z,94.29
2019-01-11T23:52:32.198Z,94.24
2019-01-11T23:55:01.014Z,94.16
2019-01-11T23:57:29.976Z,94.25
2019-01-11T23:59:58.944Z,94.21
